sensor_id;sensor_type;location;lat;lon;timestamp;temperature;humidity
63317;DHT22;49822;41.468;13.560;2023-04-25T00:01:29;13.00;85.40
63317;DHT22;49822;41.468;13.560;2023-04-25T00:03:55;13.00;84.90
63317;DHT22;49822;41.468;13.560;2023-04-25T00:06:21;12.80;84.80
63317;DHT22;49822;41.468;13.560;2023-04-25T00:08:47;12.90;84.80
63317;DHT22;49822;41.468;13.560;2023-04-25T00:11:15;12.60;85.70
63317;DHT22;49822;41.468;13.560;2023-04-25T00:13:41;12.60;86.00
63317;DHT22;49822;41.468;13.560;2023-04-25T00:16:07;12.70;85.70
63317;DHT22;49822;41.468;13.560;2023-04-25T00:18:33;12.50;86.60
63317;DHT22;49822;41.468;13.560;2023-04-25T00:20:59;12.50;86.80
63317;DHT22;49822;41.468;13.560;2023-04-25T00:23:26;12.60;87.60
63317;DHT22;49822;41.468;13.560;2023-04-25T00:25:52;12.60;86.70
63317;DHT22;49822;41.468;13.560;2023-04-25T00:28:18;12.50;87.60
63317;DHT22;49822;41.468;13.560;2023-04-25T00:30:44;12.40;87.00
63317;DHT22;49822;41.468;13.560;2023-04-25T00:33:10;12.20;87.30
63317;DHT22;49822;41.468;13.560;2023-04-25T00:35:36;12.10;88.20
63317;DHT22;49822;41.468;13.560;2023-04-25T00:38:03;12.20;88.10
63317;DHT22;49822;41.468;13.560;2023-04-25T00:40:29;12.30;87.80
63317;DHT22;49822;41.468;13.560;2023-04-25T00:42:55;12.40;88.10
63317;DHT22;49822;41.468;13.560;2023-04-25T00:45:28;12.50;88.10
63317;DHT22;49822;41.468;13.560;2023-04-25T00:47:56;12.60;87.50
63317;DHT22;49822;41.468;13.560;2023-04-25T00:50:23;12.50;86.20
63317;DHT22;49822;41.468;13.560;2023-04-25T00:52:50;12.30;85.80
63317;DHT22;49822;41.468;13.560;2023-04-25T00:55:16;12.20;85.20
63317;DHT22;49822;41.468;13.560;2023-04-25T00:57:42;12.20;86.00
63317;DHT22;49822;41.468;13.560;2023-04-25T01:00:09;11.90;86.30
63317;DHT22;49822;41.468;13.560;2023-04-25T01:02:37;11.60;87.30
63317;DHT22;49822;41.468;13.560;2023-04-25T01:05:04;11.20;88.80
63317;DHT22;49822;41.468;13.560;2023-04-25T01:07:30;11.20;88.60
63317;DHT22;49822;41.468;13.560;2023-04-25T01:09:56;11.30;88.10
63317;DHT22;49822;41.468;13.560;2023-04-25T01:12:23;11.50;87.70
63317;DHT22;49822;41.468;13.560;2023-04-25T01:14:49;11.50;87.90
63317;DHT22;49822;41.468;13.560;2023-04-25T01:17:17;11.60;86.90
63317;DHT22;49822;41.468;13.560;2023-04-25T01:19:44;11.70;86.50
63317;DHT22;49822;41.468;13.560;2023-04-25T01:22:11;11.70;86.10
63317;DHT22;49822;41.468;13.560;2023-04-25T01:24:37;11.60;85.80
63317;DHT22;49822;41.468;13.560;2023-04-25T01:27:04;11.30;86.50
63317;DHT22;49822;41.468;13.560;2023-04-25T01:29:32;11.00;87.70
63317;DHT22;49822;41.468;13.560;2023-04-25T01:31:59;10.90;88.30
63317;DHT22;49822;41.468;13.560;2023-04-25T01:34:26;10.90;88.50
63317;DHT22;49822;41.468;13.560;2023-04-25T01:36:53;10.90;88.80
63317;DHT22;49822;41.468;13.560;2023-04-25T01:39:19;11.10;88.50
63317;DHT22;49822;41.468;13.560;2023-04-25T01:41:47;11.30;88.60
63317;DHT22;49822;41.468;13.560;2023-04-25T01:44:13;11.30;88.30
63317;DHT22;49822;41.468;13.560;2023-04-25T01:46:39;11.50;88.20
63317;DHT22;49822;41.468;13.560;2023-04-25T01:49:05;11.50;89.00
63317;DHT22;49822;41.468;13.560;2023-04-25T01:51:32;11.30;86.80
63317;DHT22;49822;41.468;13.560;2023-04-25T01:53:59;11.00;88.30
63317;DHT22;49822;41.468;13.560;2023-04-25T01:56:30;10.90;89.80
63317;DHT22;49822;41.468;13.560;2023-04-25T01:58:57;10.90;91.10
63317;DHT22;49822;41.468;13.560;2023-04-25T02:01:42;11.00;91.10
63317;DHT22;49822;41.468;13.560;2023-04-25T02:04:17;11.30;90.00
63317;DHT22;49822;41.468;13.560;2023-04-25T02:06:43;11.40;88.60
63317;DHT22;49822;41.468;13.560;2023-04-25T02:09:10;11.40;88.00
63317;DHT22;49822;41.468;13.560;2023-04-25T02:11:44;11.50;88.00
63317;DHT22;49822;41.468;13.560;2023-04-25T02:14:36;11.50;87.70
63317;DHT22;49822;41.468;13.560;2023-04-25T02:17:06;11.60;87.10
63317;DHT22;49822;41.468;13.560;2023-04-25T02:19:33;11.50;87.80
63317;DHT22;49822;41.468;13.560;2023-04-25T02:21:59;11.50;87.40
63317;DHT22;49822;41.468;13.560;2023-04-25T02:24:26;11.40;88.10
63317;DHT22;49822;41.468;13.560;2023-04-25T02:26:55;11.50;88.50
63317;DHT22;49822;41.468;13.560;2023-04-25T02:29:21;11.40;88.10
63317;DHT22;49822;41.468;13.560;2023-04-25T02:31:47;11.50;87.90
63317;DHT22;49822;41.468;13.560;2023-04-25T02:34:14;11.60;87.60
63317;DHT22;49822;41.468;13.560;2023-04-25T02:36:40;11.60;87.50
63317;DHT22;49822;41.468;13.560;2023-04-25T02:39:06;11.60;87.30
63317;DHT22;49822;41.468;13.560;2023-04-25T02:41:33;11.60;87.30
63317;DHT22;49822;41.468;13.560;2023-04-25T02:43:59;11.70;87.30
63317;DHT22;49822;41.468;13.560;2023-04-25T02:46:25;11.70;88.80
63317;DHT22;49822;41.468;13.560;2023-04-25T02:48:51;11.50;89.60
63317;DHT22;49822;41.468;13.560;2023-04-25T02:51:17;11.40;89.70
63317;DHT22;49822;41.468;13.560;2023-04-25T02:53:44;11.50;89.40
63317;DHT22;49822;41.468;13.560;2023-04-25T02:56:11;11.60;89.10
63317;DHT22;49822;41.468;13.560;2023-04-25T02:58:37;11.70;89.40
63317;DHT22;49822;41.468;13.560;2023-04-25T03:01:03;11.60;89.10
63317;DHT22;49822;41.468;13.560;2023-04-25T03:03:29;11.60;89.10
63317;DHT22;49822;41.468;13.560;2023-04-25T03:05:55;11.60;88.50
63317;DHT22;49822;41.468;13.560;2023-04-25T03:08:28;11.50;88.60
63317;DHT22;49822;41.468;13.560;2023-04-25T03:10:59;11.40;89.50
63317;DHT22;49822;41.468;13.560;2023-04-25T03:13:26;11.20;90.80
63317;DHT22;49822;41.468;13.560;2023-04-25T03:15:53;11.20;91.10
63317;DHT22;49822;41.468;13.560;2023-04-25T03:18:19;11.30;91.40
63317;DHT22;49822;41.468;13.560;2023-04-25T03:20:45;11.50;91.30
63317;DHT22;49822;41.468;13.560;2023-04-25T03:23:12;11.50;91.00
63317;DHT22;49822;41.468;13.560;2023-04-25T03:25:41;11.60;90.80
63317;DHT22;49822;41.468;13.560;2023-04-25T03:28:07;11.70;90.10
63317;DHT22;49822;41.468;13.560;2023-04-25T03:30:35;11.70;90.30
63317;DHT22;49822;41.468;13.560;2023-04-25T03:33:02;11.80;90.30
63317;DHT22;49822;41.468;13.560;2023-04-25T03:35:28;11.80;90.10
63317;DHT22;49822;41.468;13.560;2023-04-25T03:37:54;11.90;89.70
63317;DHT22;49822;41.468;13.560;2023-04-25T03:40:25;12.00;89.90
63317;DHT22;49822;41.468;13.560;2023-04-25T03:43:15;12.00;89.70
63317;DHT22;49822;41.468;13.560;2023-04-25T03:45:47;12.10;89.30
63317;DHT22;49822;41.468;13.560;2023-04-25T03:48:14;12.10;89.40
63317;DHT22;49822;41.468;13.560;2023-04-25T03:50:40;12.20;89.20
63317;DHT22;49822;41.468;13.560;2023-04-25T03:53:06;12.20;89.10
63317;DHT22;49822;41.468;13.560;2023-04-25T03:55:52;12.20;89.10
63317;DHT22;49822;41.468;13.560;2023-04-25T03:58:18;12.10;89.10
63317;DHT22;49822;41.468;13.560;2023-04-25T04:00:44;12.20;88.90
63317;DHT22;49822;41.468;13.560;2023-04-25T04:03:11;12.30;88.20
63317;DHT22;49822;41.468;13.560;2023-04-25T04:05:37;12.20;89.00
63317;DHT22;49822;41.468;13.560;2023-04-25T04:08:06;11.70;90.40
63317;DHT22;49822;41.468;13.560;2023-04-25T04:10:34;11.60;91.50
63317;DHT22;49822;41.468;13.560;2023-04-25T04:13:00;11.70;91.60
63317;DHT22;49822;41.468;13.560;2023-04-25T04:15:26;11.90;90.90
63317;DHT22;49822;41.468;13.560;2023-04-25T04:17:54;11.90;90.10
63317;DHT22;49822;41.468;13.560;2023-04-25T04:20:20;12.10;89.90
63317;DHT22;49822;41.468;13.560;2023-04-25T04:22:46;12.10;89.40
63317;DHT22;49822;41.468;13.560;2023-04-25T04:25:14;12.10;88.90
63317;DHT22;49822;41.468;13.560;2023-04-25T04:27:58;12.30;89.00
63317;DHT22;49822;41.468;13.560;2023-04-25T04:30:50;12.20;88.80
63317;DHT22;49822;41.468;13.560;2023-04-25T04:33:18;12.20;88.60
63317;DHT22;49822;41.468;13.560;2023-04-25T04:35:56;11.70;89.90
63317;DHT22;49822;41.468;13.560;2023-04-25T04:38:22;11.50;90.50
63317;DHT22;49822;41.468;13.560;2023-04-25T04:40:50;11.30;91.00
63317;DHT22;49822;41.468;13.560;2023-04-25T04:43:24;11.50;91.10
63317;DHT22;49822;41.468;13.560;2023-04-25T04:45:50;11.60;91.10
63317;DHT22;49822;41.468;13.560;2023-04-25T04:48:40;11.80;90.70
63317;DHT22;49822;41.468;13.560;2023-04-25T04:51:25;12.00;90.50
63317;DHT22;49822;41.468;13.560;2023-04-25T04:54:04;12.10;90.10
63317;DHT22;49822;41.468;13.560;2023-04-25T04:56:46;12.10;90.30
63317;DHT22;49822;41.468;13.560;2023-04-25T04:59:36;12.20;90.30
63317;DHT22;49822;41.468;13.560;2023-04-25T05:02:10;12.40;90.00
63317;DHT22;49822;41.468;13.560;2023-04-25T05:04:56;12.40;89.80
63317;DHT22;49822;41.468;13.560;2023-04-25T05:07:43;12.40;90.10
63317;DHT22;49822;41.468;13.560;2023-04-25T05:10:28;12.60;89.70
63317;DHT22;49822;41.468;13.560;2023-04-25T05:13:03;12.60;89.40
63317;DHT22;49822;41.468;13.560;2023-04-25T05:15:52;12.90;88.50
63317;DHT22;49822;41.468;13.560;2023-04-25T05:18:33;12.70;88.40
63317;DHT22;49822;41.468;13.560;2023-04-25T05:21:07;12.80;88.30
63317;DHT22;49822;41.468;13.560;2023-04-25T05:23:51;12.90;88.00
63317;DHT22;49822;41.468;13.560;2023-04-25T05:26:36;13.00;87.70
63317;DHT22;49822;41.468;13.560;2023-04-25T05:29:21;13.10;87.60
63317;DHT22;49822;41.468;13.560;2023-04-25T05:32:02;13.20;87.50
63317;DHT22;49822;41.468;13.560;2023-04-25T05:34:29;13.20;87.60
63317;DHT22;49822;41.468;13.560;2023-04-25T05:36:58;13.50;87.50
63317;DHT22;49822;41.468;13.560;2023-04-25T05:39:26;13.50;87.50
63317;DHT22;49822;41.468;13.560;2023-04-25T05:42:29;13.70;87.20
63317;DHT22;49822;41.468;13.560;2023-04-25T05:45:13;13.90;87.00
63317;DHT22;49822;41.468;13.560;2023-04-25T05:48:08;14.00;87.40
63317;DHT22;49822;41.468;13.560;2023-04-25T05:50:53;14.10;87.00
63317;DHT22;49822;41.468;13.560;2023-04-25T05:53:44;14.20;87.10
63317;DHT22;49822;41.468;13.560;2023-04-25T05:56:13;14.30;87.40
63317;DHT22;49822;41.468;13.560;2023-04-25T05:58:40;14.30;87.10
63317;DHT22;49822;41.468;13.560;2023-04-25T06:01:07;14.40;86.80
63317;DHT22;49822;41.468;13.560;2023-04-25T06:03:34;14.50;86.60
63317;DHT22;49822;41.468;13.560;2023-04-25T06:06:00;14.60;86.50
63317;DHT22;49822;41.468;13.560;2023-04-25T06:08:26;14.70;86.50
63317;DHT22;49822;41.468;13.560;2023-04-25T06:10:52;14.90;86.20
63317;DHT22;49822;41.468;13.560;2023-04-25T06:13:19;14.90;86.20
63317;DHT22;49822;41.468;13.560;2023-04-25T06:15:46;15.10;86.10
63317;DHT22;49822;41.468;13.560;2023-04-25T06:18:12;15.20;86.10
63317;DHT22;49822;41.468;13.560;2023-04-25T06:20:38;15.40;86.00
63317;DHT22;49822;41.468;13.560;2023-04-25T06:23:05;15.50;85.50
63317;DHT22;49822;41.468;13.560;2023-04-25T06:25:49;15.60;84.90
63317;DHT22;49822;41.468;13.560;2023-04-25T06:28:15;15.80;85.10
63317;DHT22;49822;41.468;13.560;2023-04-25T06:30:42;15.80;84.40
63317;DHT22;49822;41.468;13.560;2023-04-25T06:33:13;15.90;84.40
63317;DHT22;49822;41.468;13.560;2023-04-25T06:35:40;16.00;84.00
63317;DHT22;49822;41.468;13.560;2023-04-25T06:38:09;16.10;84.30
63317;DHT22;49822;41.468;13.560;2023-04-25T06:40:38;16.00;84.30
63317;DHT22;49822;41.468;13.560;2023-04-25T06:43:05;16.10;84.30
63317;DHT22;49822;41.468;13.560;2023-04-25T06:45:48;16.20;84.00
63317;DHT22;49822;41.468;13.560;2023-04-25T06:48:14;16.30;83.50
63317;DHT22;49822;41.468;13.560;2023-04-25T06:50:42;16.50;83.10
63317;DHT22;49822;41.468;13.560;2023-04-25T06:53:08;16.60;82.80
63317;DHT22;49822;41.468;13.560;2023-04-25T06:55:36;16.90;82.60
63317;DHT22;49822;41.468;13.560;2023-04-25T06:58:22;16.80;83.10
63317;DHT22;49822;41.468;13.560;2023-04-25T07:01:07;16.90;82.50
63317;DHT22;49822;41.468;13.560;2023-04-25T07:03:33;16.90;82.30
63317;DHT22;49822;41.468;13.560;2023-04-25T07:06:06;16.80;82.60
63317;DHT22;49822;41.468;13.560;2023-04-25T07:08:32;16.80;82.70
63317;DHT22;49822;41.468;13.560;2023-04-25T07:10:58;17.00;82.40
63317;DHT22;49822;41.468;13.560;2023-04-25T07:13:25;17.00;82.70
63317;DHT22;49822;41.468;13.560;2023-04-25T07:15:51;16.90;82.80
63317;DHT22;49822;41.468;13.560;2023-04-25T07:18:20;16.90;82.40
63317;DHT22;49822;41.468;13.560;2023-04-25T07:20:46;16.90;82.60
63317;DHT22;49822;41.468;13.560;2023-04-25T07:23:12;17.00;82.80
63317;DHT22;49822;41.468;13.560;2023-04-25T07:25:39;17.10;82.70
63317;DHT22;49822;41.468;13.560;2023-04-25T07:28:06;17.10;82.50
63317;DHT22;49822;41.468;13.560;2023-04-25T07:30:34;17.10;82.40
63317;DHT22;49822;41.468;13.560;2023-04-25T07:33:03;17.20;82.30
63317;DHT22;49822;41.468;13.560;2023-04-25T07:35:31;17.30;82.80
63317;DHT22;49822;41.468;13.560;2023-04-25T07:37:57;17.30;82.20
63317;DHT22;49822;41.468;13.560;2023-04-25T07:40:25;17.20;82.90
63317;DHT22;49822;41.468;13.560;2023-04-25T07:42:56;17.30;82.90
63317;DHT22;49822;41.468;13.560;2023-04-25T07:45:36;17.30;83.00
63317;DHT22;49822;41.468;13.560;2023-04-25T07:48:05;17.30;83.30
63317;DHT22;49822;41.468;13.560;2023-04-25T07:50:35;17.40;83.50
63317;DHT22;49822;41.468;13.560;2023-04-25T07:53:01;17.50;83.30
63317;DHT22;49822;41.468;13.560;2023-04-25T07:55:36;17.80;83.40
63317;DHT22;49822;41.468;13.560;2023-04-25T07:58:15;18.00;82.70
63317;DHT22;49822;41.468;13.560;2023-04-25T08:00:47;18.30;81.70
63317;DHT22;49822;41.468;13.560;2023-04-25T08:03:28;18.60;80.80
63317;DHT22;49822;41.468;13.560;2023-04-25T08:05:55;18.90;79.90
63317;DHT22;49822;41.468;13.560;2023-04-25T08:08:23;19.10;80.40
63317;DHT22;49822;41.468;13.560;2023-04-25T08:10:50;19.20;80.20
63317;DHT22;49822;41.468;13.560;2023-04-25T08:13:17;19.40;79.60
63317;DHT22;49822;41.468;13.560;2023-04-25T08:15:44;19.50;80.30
63317;DHT22;49822;41.468;13.560;2023-04-25T08:18:12;19.70;79.30
63317;DHT22;49822;41.468;13.560;2023-04-25T08:20:38;19.70;78.20
63317;DHT22;49822;41.468;13.560;2023-04-25T08:23:08;19.90;78.30
63317;DHT22;49822;41.468;13.560;2023-04-25T08:25:45;19.90;77.60
63317;DHT22;49822;41.468;13.560;2023-04-25T08:28:14;19.90;77.50
63317;DHT22;49822;41.468;13.560;2023-04-25T08:30:44;20.00;77.40
63317;DHT22;49822;41.468;13.560;2023-04-25T08:33:13;20.00;77.60
63317;DHT22;49822;41.468;13.560;2023-04-25T08:35:58;20.10;77.30
63317;DHT22;49822;41.468;13.560;2023-04-25T08:38:26;20.30;76.70
63317;DHT22;49822;41.468;13.560;2023-04-25T08:40:54;20.40;76.30
63317;DHT22;49822;41.468;13.560;2023-04-25T08:43:25;20.60;76.30
63317;DHT22;49822;41.468;13.560;2023-04-25T08:45:53;20.90;75.70
63317;DHT22;49822;41.468;13.560;2023-04-25T08:48:36;20.90;74.00
63317;DHT22;49822;41.468;13.560;2023-04-25T08:51:08;21.00;74.90
63317;DHT22;49822;41.468;13.560;2023-04-25T08:53:36;21.00;74.40
63317;DHT22;49822;41.468;13.560;2023-04-25T08:56:06;21.10;74.60
63317;DHT22;49822;41.468;13.560;2023-04-25T08:58:35;21.00;74.30
63317;DHT22;49822;41.468;13.560;2023-04-25T09:01:03;21.00;74.80
63317;DHT22;49822;41.468;13.560;2023-04-25T09:03:35;21.10;74.60
63317;DHT22;49822;41.468;13.560;2023-04-25T09:06:02;21.20;73.70
63317;DHT22;49822;41.468;13.560;2023-04-25T09:08:29;21.30;73.80
63317;DHT22;49822;41.468;13.560;2023-04-25T09:10:56;21.50;72.70
63317;DHT22;49822;41.468;13.560;2023-04-25T09:13:27;21.50;72.90
63317;DHT22;49822;41.468;13.560;2023-04-25T09:16:12;21.10;72.50
63317;DHT22;49822;41.468;13.560;2023-04-25T09:18:56;21.10;73.60
63317;DHT22;49822;41.468;13.560;2023-04-25T09:21:22;21.00;73.00
63317;DHT22;49822;41.468;13.560;2023-04-25T09:23:49;21.10;72.90
63317;DHT22;49822;41.468;13.560;2023-04-25T09:26:20;21.00;72.00
63317;DHT22;49822;41.468;13.560;2023-04-25T09:28:47;20.90;73.30
63317;DHT22;49822;41.468;13.560;2023-04-25T09:31:25;21.10;73.20
63317;DHT22;49822;41.468;13.560;2023-04-25T09:34:01;21.50;73.10
63317;DHT22;49822;41.468;13.560;2023-04-25T09:36:29;21.70;71.80
63317;DHT22;49822;41.468;13.560;2023-04-25T09:39:28;21.70;71.80
63317;DHT22;49822;41.468;13.560;2023-04-25T09:42:06;22.00;71.50
63317;DHT22;49822;41.468;13.560;2023-04-25T09:44:32;22.30;70.90
63317;DHT22;49822;41.468;13.560;2023-04-25T09:46:58;22.40;71.30
63317;DHT22;49822;41.468;13.560;2023-04-25T09:49:27;22.80;72.10
63317;DHT22;49822;41.468;13.560;2023-04-25T09:52:00;22.90;70.20
63317;DHT22;49822;41.468;13.560;2023-04-25T09:54:31;22.80;70.40
63317;DHT22;49822;41.468;13.560;2023-04-25T09:57:23;22.80;70.70
63317;DHT22;49822;41.468;13.560;2023-04-25T09:59:54;22.80;71.20
63317;DHT22;49822;41.468;13.560;2023-04-25T10:02:23;22.90;70.80
63317;DHT22;49822;41.468;13.560;2023-04-25T10:04:54;22.70;69.00
63317;DHT22;49822;41.468;13.560;2023-04-25T10:07:36;22.60;69.20
63317;DHT22;49822;41.468;13.560;2023-04-25T10:10:19;22.70;69.70
63317;DHT22;49822;41.468;13.560;2023-04-25T10:12:55;22.60;70.70
63317;DHT22;49822;41.468;13.560;2023-04-25T10:15:24;22.50;69.50
63317;DHT22;49822;41.468;13.560;2023-04-25T10:17:53;22.30;69.80
63317;DHT22;49822;41.468;13.560;2023-04-25T10:20:19;22.10;69.90
63317;DHT22;49822;41.468;13.560;2023-04-25T10:22:46;22.00;70.30
63317;DHT22;49822;41.468;13.560;2023-04-25T10:25:14;21.90;70.40
63317;DHT22;49822;41.468;13.560;2023-04-25T10:27:41;21.70;71.20
63317;DHT22;49822;41.468;13.560;2023-04-25T10:30:13;21.60;70.80
63317;DHT22;49822;41.468;13.560;2023-04-25T10:32:45;21.50;71.00
63317;DHT22;49822;41.468;13.560;2023-04-25T10:35:18;21.30;70.80
63317;DHT22;49822;41.468;13.560;2023-04-25T10:38:04;21.10;69.80
63317;DHT22;49822;41.468;13.560;2023-04-25T10:40:32;20.80;70.30
63317;DHT22;49822;41.468;13.560;2023-04-25T10:46:25;20.90;72.20
63317;DHT22;49822;41.468;13.560;2023-04-25T10:48:56;21.10;71.80
63317;DHT22;49822;41.468;13.560;2023-04-25T10:54:03;21.20;70.60
63317;DHT22;49822;41.468;13.560;2023-04-25T10:56:38;21.20;70.90
63317;DHT22;49822;41.468;13.560;2023-04-25T10:59:18;21.30;71.30
63317;DHT22;49822;41.468;13.560;2023-04-25T11:01:51;21.20;71.40
63317;DHT22;49822;41.468;13.560;2023-04-25T11:04:20;21.10;71.90
63317;DHT22;49822;41.468;13.560;2023-04-25T11:07:09;21.10;71.40
63317;DHT22;49822;41.468;13.560;2023-04-25T11:09:41;21.20;71.80
63317;DHT22;49822;41.468;13.560;2023-04-25T11:12:08;21.10;71.50
63317;DHT22;49822;41.468;13.560;2023-04-25T11:14:35;21.20;71.60
63317;DHT22;49822;41.468;13.560;2023-04-25T11:17:01;21.20;72.10
63317;DHT22;49822;41.468;13.560;2023-04-25T11:19:28;21.60;71.60
63317;DHT22;49822;41.468;13.560;2023-04-25T11:21:59;21.90;71.20
63317;DHT22;49822;41.468;13.560;2023-04-25T11:24:30;22.10;71.20
63317;DHT22;49822;41.468;13.560;2023-04-25T11:26:58;22.20;69.40
63317;DHT22;49822;41.468;13.560;2023-04-25T11:29:29;22.10;68.90
63317;DHT22;49822;41.468;13.560;2023-04-25T11:31:58;22.10;69.20
63317;DHT22;49822;41.468;13.560;2023-04-25T11:34:25;22.10;69.80
63317;DHT22;49822;41.468;13.560;2023-04-25T11:36:52;22.10;68.70
63317;DHT22;49822;41.468;13.560;2023-04-25T11:39:19;22.30;69.00
63317;DHT22;49822;41.468;13.560;2023-04-25T11:41:46;22.70;69.10
63317;DHT22;49822;41.468;13.560;2023-04-25T11:44:16;22.90;66.30
63317;DHT22;49822;41.468;13.560;2023-04-25T11:46:46;22.90;65.40
63317;DHT22;49822;41.468;13.560;2023-04-25T11:49:13;22.50;68.30
63317;DHT22;49822;41.468;13.560;2023-04-25T11:51:44;22.20;66.40
63317;DHT22;49822;41.468;13.560;2023-04-25T11:54:10;22.10;67.40
63317;DHT22;49822;41.468;13.560;2023-04-25T11:56:43;21.70;68.10
63317;DHT22;49822;41.468;13.560;2023-04-25T11:59:10;21.70;68.10
63317;DHT22;49822;41.468;13.560;2023-04-25T12:01:38;21.70;67.30
63317;DHT22;49822;41.468;13.560;2023-04-25T12:04:15;21.50;67.20
63317;DHT22;49822;41.468;13.560;2023-04-25T12:06:43;21.20;68.40
63317;DHT22;49822;41.468;13.560;2023-04-25T12:09:13;21.10;68.90
63317;DHT22;49822;41.468;13.560;2023-04-25T12:11:43;21.00;70.60
63317;DHT22;49822;41.468;13.560;2023-04-25T12:14:10;21.00;71.10
63317;DHT22;49822;41.468;13.560;2023-04-25T12:16:45;20.60;69.10
63317;DHT22;49822;41.468;13.560;2023-04-25T12:19:15;20.80;69.70
63317;DHT22;49822;41.468;13.560;2023-04-25T12:21:41;20.40;71.40
63317;DHT22;49822;41.468;13.560;2023-04-25T12:24:21;20.30;70.00
63317;DHT22;49822;41.468;13.560;2023-04-25T12:27:04;20.20;69.80
63317;DHT22;49822;41.468;13.560;2023-04-25T12:29:32;20.00;71.30
63317;DHT22;49822;41.468;13.560;2023-04-25T12:31:59;20.00;70.50
63317;DHT22;49822;41.468;13.560;2023-04-25T12:34:28;19.80;71.40
63317;DHT22;49822;41.468;13.560;2023-04-25T12:36:54;20.10;70.30
63317;DHT22;49822;41.468;13.560;2023-04-25T12:39:22;20.00;70.80
63317;DHT22;49822;41.468;13.560;2023-04-25T12:41:50;19.90;70.30
63317;DHT22;49822;41.468;13.560;2023-04-25T12:44:16;19.60;70.40
63317;DHT22;49822;41.468;13.560;2023-04-25T12:46:42;19.80;70.70
63317;DHT22;49822;41.468;13.560;2023-04-25T12:49:09;20.00;70.70
63317;DHT22;49822;41.468;13.560;2023-04-25T12:51:36;20.10;70.80
63317;DHT22;49822;41.468;13.560;2023-04-25T12:54:03;20.20;70.60
63317;DHT22;49822;41.468;13.560;2023-04-25T12:56:30;20.20;70.30
63317;DHT22;49822;41.468;13.560;2023-04-25T12:58:58;20.50;70.50
63317;DHT22;49822;41.468;13.560;2023-04-25T13:01:25;20.50;70.20
63317;DHT22;49822;41.468;13.560;2023-04-25T13:03:52;20.40;71.20
63317;DHT22;49822;41.468;13.560;2023-04-25T13:06:19;20.30;70.50
63317;DHT22;49822;41.468;13.560;2023-04-25T13:08:46;20.80;70.30
63317;DHT22;49822;41.468;13.560;2023-04-25T13:11:12;20.80;70.30
63317;DHT22;49822;41.468;13.560;2023-04-25T13:13:41;21.00;68.40
63317;DHT22;49822;41.468;13.560;2023-04-25T13:16:07;21.10;67.50
63317;DHT22;49822;41.468;13.560;2023-04-25T13:18:34;21.20;68.70
63317;DHT22;49822;41.468;13.560;2023-04-25T13:21:00;21.50;68.00
63317;DHT22;49822;41.468;13.560;2023-04-25T13:23:27;21.40;66.70
63317;DHT22;49822;41.468;13.560;2023-04-25T13:25:54;21.30;67.20
63317;DHT22;49822;41.468;13.560;2023-04-25T13:28:21;21.40;67.10
63317;DHT22;49822;41.468;13.560;2023-04-25T13:30:47;21.30;68.10
63317;DHT22;49822;41.468;13.560;2023-04-25T13:33:14;20.90;68.80
63317;DHT22;49822;41.468;13.560;2023-04-25T13:35:40;20.50;69.90
63317;DHT22;49822;41.468;13.560;2023-04-25T13:38:07;20.60;70.10
63317;DHT22;49822;41.468;13.560;2023-04-25T13:40:33;20.80;69.90
63317;DHT22;49822;41.468;13.560;2023-04-25T13:42:59;20.90;69.30
63317;DHT22;49822;41.468;13.560;2023-04-25T13:45:26;20.90;69.80
63317;DHT22;49822;41.468;13.560;2023-04-25T13:47:53;20.90;68.90
63317;DHT22;49822;41.468;13.560;2023-04-25T13:50:20;20.90;68.50
63317;DHT22;49822;41.468;13.560;2023-04-25T13:52:46;21.10;69.60
63317;DHT22;49822;41.468;13.560;2023-04-25T13:55:12;21.20;68.30
63317;DHT22;49822;41.468;13.560;2023-04-25T13:57:39;21.20;68.20
63317;DHT22;49822;41.468;13.560;2023-04-25T14:00:06;20.90;67.80
63317;DHT22;49822;41.468;13.560;2023-04-25T14:02:38;20.80;69.80
63317;DHT22;49822;41.468;13.560;2023-04-25T14:05:05;20.80;69.60
63317;DHT22;49822;41.468;13.560;2023-04-25T14:07:33;21.00;68.90
63317;DHT22;49822;41.468;13.560;2023-04-25T14:10:00;20.80;69.30
63317;DHT22;49822;41.468;13.560;2023-04-25T14:12:27;20.70;70.20
63317;DHT22;49822;41.468;13.560;2023-04-25T14:14:53;20.50;69.70
63317;DHT22;49822;41.468;13.560;2023-04-25T14:17:19;20.70;70.50
63317;DHT22;49822;41.468;13.560;2023-04-25T14:19:46;20.70;70.20
63317;DHT22;49822;41.468;13.560;2023-04-25T14:22:17;20.80;69.70
63317;DHT22;49822;41.468;13.560;2023-04-25T14:24:43;20.80;70.00
63317;DHT22;49822;41.468;13.560;2023-04-25T14:27:09;20.60;71.00
63317;DHT22;49822;41.468;13.560;2023-04-25T14:29:36;20.50;70.90
63317;DHT22;49822;41.468;13.560;2023-04-25T14:32:02;20.60;70.80
63317;DHT22;49822;41.468;13.560;2023-04-25T14:34:28;20.40;71.60
63317;DHT22;49822;41.468;13.560;2023-04-25T14:36:55;20.30;72.20
63317;DHT22;49822;41.468;13.560;2023-04-25T14:39:21;20.40;71.90
63317;DHT22;49822;41.468;13.560;2023-04-25T14:41:47;20.40;71.80
63317;DHT22;49822;41.468;13.560;2023-04-25T14:44:13;20.60;71.70
63317;DHT22;49822;41.468;13.560;2023-04-25T14:46:39;20.70;72.40
63317;DHT22;49822;41.468;13.560;2023-04-25T14:49:05;20.70;71.80
63317;DHT22;49822;41.468;13.560;2023-04-25T14:51:31;20.60;71.50
63317;DHT22;49822;41.468;13.560;2023-04-25T14:53:57;20.60;72.30
63317;DHT22;49822;41.468;13.560;2023-04-25T14:56:23;20.60;70.80
63317;DHT22;49822;41.468;13.560;2023-04-25T14:58:50;20.70;71.50
63317;DHT22;49822;41.468;13.560;2023-04-25T15:01:16;20.80;71.90
63317;DHT22;49822;41.468;13.560;2023-04-25T15:03:42;20.70;71.50
63317;DHT22;49822;41.468;13.560;2023-04-25T15:06:08;20.90;72.00
63317;DHT22;49822;41.468;13.560;2023-04-25T15:08:34;20.90;70.60
63317;DHT22;49822;41.468;13.560;2023-04-25T15:11:00;20.90;70.80
63317;DHT22;49822;41.468;13.560;2023-04-25T15:13:27;20.80;71.30
63317;DHT22;49822;41.468;13.560;2023-04-25T15:15:53;21.00;69.70
63317;DHT22;49822;41.468;13.560;2023-04-25T15:18:21;20.90;69.70
63317;DHT22;49822;41.468;13.560;2023-04-25T15:20:48;20.90;69.70
63317;DHT22;49822;41.468;13.560;2023-04-25T15:23:17;20.90;70.20
63317;DHT22;49822;41.468;13.560;2023-04-25T15:25:42;21.00;69.70
63317;DHT22;49822;41.468;13.560;2023-04-25T15:28:09;20.90;68.50
63317;DHT22;49822;41.468;13.560;2023-04-25T15:30:37;20.80;69.50
63317;DHT22;49822;41.468;13.560;2023-04-25T15:33:04;20.60;69.90
63317;DHT22;49822;41.468;13.560;2023-04-25T15:35:30;20.70;69.80
63317;DHT22;49822;41.468;13.560;2023-04-25T15:37:56;20.60;70.30